sensor_id;sensor_type;location;lat;lon;timestamp;temperature;humidity
51739;DHT22;37815;52.692;6.226;2023-04-03T00:03:43;9.90;95.90
51739;DHT22;37815;52.692;6.226;2023-04-03T00:08:44;9.90;95.90
51739;DHT22;37815;52.692;6.226;2023-04-03T00:13:45;9.90;95.90
51739;DHT22;37815;52.692;6.226;2023-04-03T00:18:45;9.90;95.90
51739;DHT22;37815;52.692;6.226;2023-04-03T00:23:46;9.80;95.80
51739;DHT22;37815;52.692;6.226;2023-04-03T00:28:47;9.80;95.80
51739;DHT22;37815;52.692;6.226;2023-04-03T00:33:47;9.80;95.80
51739;DHT22;37815;52.692;6.226;2023-04-03T00:38:48;9.70;95.80
51739;DHT22;37815;52.692;6.226;2023-04-03T00:43:48;9.70;95.80
51739;DHT22;37815;52.692;6.226;2023-04-03T00:48:49;9.70;95.80
51739;DHT22;37815;52.692;6.226;2023-04-03T00:53:53;9.60;95.80
51739;DHT22;37815;52.692;6.226;2023-04-03T00:59:08;9.60;95.80
51739;DHT22;37815;52.692;6.226;2023-04-03T01:04:31;9.60;95.70
51739;DHT22;37815;52.692;6.226;2023-04-03T01:09:33;9.60;95.60
51739;DHT22;37815;52.692;6.226;2023-04-03T01:14:34;9.50;95.70
51739;DHT22;37815;52.692;6.226;2023-04-03T01:19:38;9.50;95.70
51739;DHT22;37815;52.692;6.226;2023-04-03T01:24:42;9.40;95.70
51739;DHT22;37815;52.692;6.226;2023-04-03T01:29:43;9.40;95.70
51739;DHT22;37815;52.692;6.226;2023-04-03T01:34:44;9.40;95.70
51739;DHT22;37815;52.692;6.226;2023-04-03T01:39:44;9.40;95.70
51739;DHT22;37815;52.692;6.226;2023-04-03T01:44:45;9.30;95.70
51739;DHT22;37815;52.692;6.226;2023-04-03T01:49:46;9.30;95.70
51739;DHT22;37815;52.692;6.226;2023-04-03T01:54:51;9.20;95.70
51739;DHT22;37815;52.692;6.226;2023-04-03T01:59:52;9.20;95.70
51739;DHT22;37815;52.692;6.226;2023-04-03T02:04:53;9.20;95.70
51739;DHT22;37815;52.692;6.226;2023-04-03T02:09:55;9.20;95.70
51739;DHT22;37815;52.692;6.226;2023-04-03T02:14:55;9.10;95.70
51739;DHT22;37815;52.692;6.226;2023-04-03T02:19:56;9.10;95.70
51739;DHT22;37815;52.692;6.226;2023-04-03T02:24:57;9.10;95.70
51739;DHT22;37815;52.692;6.226;2023-04-03T02:29:57;9.00;95.70
51739;DHT22;37815;52.692;6.226;2023-04-03T02:34:58;9.00;95.70
51739;DHT22;37815;52.692;6.226;2023-04-03T02:39:58;9.00;95.70
51739;DHT22;37815;52.692;6.226;2023-04-03T02:44:59;8.90;95.70
51739;DHT22;37815;52.692;6.226;2023-04-03T02:50:01;8.90;95.70
51739;DHT22;37815;52.692;6.226;2023-04-03T02:55:02;8.90;95.70
51739;DHT22;37815;52.692;6.226;2023-04-03T03:00:03;9.00;95.80
51739;DHT22;37815;52.692;6.226;2023-04-03T03:05:04;8.90;95.70
51739;DHT22;37815;52.692;6.226;2023-04-03T03:10:05;8.80;95.70
51739;DHT22;37815;52.692;6.226;2023-04-03T03:15:06;8.80;95.70
51739;DHT22;37815;52.692;6.226;2023-04-03T03:20:07;8.70;95.70
51739;DHT22;37815;52.692;6.226;2023-04-03T03:25:08;8.70;95.70
51739;DHT22;37815;52.692;6.226;2023-04-03T03:30:09;8.70;95.70
51739;DHT22;37815;52.692;6.226;2023-04-03T03:35:10;8.70;95.70
51739;DHT22;37815;52.692;6.226;2023-04-03T03:40:11;8.60;95.70
51739;DHT22;37815;52.692;6.226;2023-04-03T03:45:13;8.60;95.70
51739;DHT22;37815;52.692;6.226;2023-04-03T03:50:14;8.60;95.70
51739;DHT22;37815;52.692;6.226;2023-04-03T03:55:14;8.60;95.70
51739;DHT22;37815;52.692;6.226;2023-04-03T04:00:15;8.50;95.80
51739;DHT22;37815;52.692;6.226;2023-04-03T04:05:16;8.50;95.70
51739;DHT22;37815;52.692;6.226;2023-04-03T04:10:17;8.50;95.70
51739;DHT22;37815;52.692;6.226;2023-04-03T04:15:17;8.50;95.70
51739;DHT22;37815;52.692;6.226;2023-04-03T04:20:18;8.40;95.70
51739;DHT22;37815;52.692;6.226;2023-04-03T04:25:19;8.40;95.70
51739;DHT22;37815;52.692;6.226;2023-04-03T04:30:20;8.40;95.90
51739;DHT22;37815;52.692;6.226;2023-04-03T04:35:21;8.40;95.70
51739;DHT22;37815;52.692;6.226;2023-04-03T04:40:21;8.40;96.00
51739;DHT22;37815;52.692;6.226;2023-04-03T04:45:22;8.30;95.70
51739;DHT22;37815;52.692;6.226;2023-04-03T04:50:23;8.30;95.70
51739;DHT22;37815;52.692;6.226;2023-04-03T04:55:24;8.30;95.70
51739;DHT22;37815;52.692;6.226;2023-04-03T05:00:24;8.30;95.70
51739;DHT22;37815;52.692;6.226;2023-04-03T05:05:25;8.20;95.60
51739;DHT22;37815;52.692;6.226;2023-04-03T05:10:25;8.20;95.60
51739;DHT22;37815;52.692;6.226;2023-04-03T05:15:26;8.20;95.60
51739;DHT22;37815;52.692;6.226;2023-04-03T05:20:27;8.20;95.60
51739;DHT22;37815;52.692;6.226;2023-04-03T05:25:27;8.20;95.60
51739;DHT22;37815;52.692;6.226;2023-04-03T05:30:28;8.10;95.60
51739;DHT22;37815;52.692;6.226;2023-04-03T05:35:32;8.10;95.60
51739;DHT22;37815;52.692;6.226;2023-04-03T05:40:33;8.10;95.60
51739;DHT22;37815;52.692;6.226;2023-04-03T05:45:34;8.10;95.60
51739;DHT22;37815;52.692;6.226;2023-04-03T05:50:34;8.10;95.60
51739;DHT22;37815;52.692;6.226;2023-04-03T05:55:35;8.00;95.50
51739;DHT22;37815;52.692;6.226;2023-04-03T06:00:35;8.00;95.50
51739;DHT22;37815;52.692;6.226;2023-04-03T06:05:36;8.00;95.50
51739;DHT22;37815;52.692;6.226;2023-04-03T06:10:37;8.00;95.50
51739;DHT22;37815;52.692;6.226;2023-04-03T06:15:37;8.00;95.50
51739;DHT22;37815;52.692;6.226;2023-04-03T06:20:39;8.00;95.50
51739;DHT22;37815;52.692;6.226;2023-04-03T06:25:40;8.00;95.40
51739;DHT22;37815;52.692;6.226;2023-04-03T06:30:41;8.00;95.40
51739;DHT22;37815;52.692;6.226;2023-04-03T06:35:41;8.00;95.40
51739;DHT22;37815;52.692;6.226;2023-04-03T06:40:42;8.00;95.30
51739;DHT22;37815;52.692;6.226;2023-04-03T06:45:44;8.00;95.30
51739;DHT22;37815;52.692;6.226;2023-04-03T06:50:44;8.00;95.30
51739;DHT22;37815;52.692;6.226;2023-04-03T06:55:45;8.00;95.20
51739;DHT22;37815;52.692;6.226;2023-04-03T07:00:47;8.10;95.20
51739;DHT22;37815;52.692;6.226;2023-04-03T07:05:48;8.10;95.20
51739;DHT22;37815;52.692;6.226;2023-04-03T07:10:48;8.10;95.10
51739;DHT22;37815;52.692;6.226;2023-04-03T07:15:50;8.20;95.10
51739;DHT22;37815;52.692;6.226;2023-04-03T07:20:51;8.20;95.10
51739;DHT22;37815;52.692;6.226;2023-04-03T07:25:52;8.40;95.10
51739;DHT22;37815;52.692;6.226;2023-04-03T07:30:59;8.40;95.00
51739;DHT22;37815;52.692;6.226;2023-04-03T07:36:00;8.50;95.00
51739;DHT22;37815;52.692;6.226;2023-04-03T07:41:02;8.50;95.00
51739;DHT22;37815;52.692;6.226;2023-04-03T07:46:05;8.50;94.90
51739;DHT22;37815;52.692;6.226;2023-04-03T07:51:05;8.50;94.80
51739;DHT22;37815;52.692;6.226;2023-04-03T07:56:07;8.60;94.90
51739;DHT22;37815;52.692;6.226;2023-04-03T08:01:08;8.60;94.80
51739;DHT22;37815;52.692;6.226;2023-04-03T08:06:09;8.60;94.80
51739;DHT22;37815;52.692;6.226;2023-04-03T08:11:10;8.70;94.80
51739;DHT22;37815;52.692;6.226;2023-04-03T08:16:22;8.70;94.80
51739;DHT22;37815;52.692;6.226;2023-04-03T08:21:23;8.70;94.80
51739;DHT22;37815;52.692;6.226;2023-04-03T08:26:24;8.70;94.80
51739;DHT22;37815;52.692;6.226;2023-04-03T08:31:26;8.70;94.90
51739;DHT22;37815;52.692;6.226;2023-04-03T08:36:29;8.70;94.90
51739;DHT22;37815;52.692;6.226;2023-04-03T08:41:37;8.70;94.90
51739;DHT22;37815;52.692;6.226;2023-04-03T08:52:20;8.80;94.90
51739;DHT22;37815;52.692;6.226;2023-04-03T08:57:31;8.80;95.00
51739;DHT22;37815;52.692;6.226;2023-04-03T09:02:42;8.80;95.00
51739;DHT22;37815;52.692;6.226;2023-04-03T09:07:51;8.80;95.00
51739;DHT22;37815;52.692;6.226;2023-04-03T09:13:05;8.70;93.50
51739;DHT22;37815;52.692;6.226;2023-04-03T09:18:25;8.50;94.30
51739;DHT22;37815;52.692;6.226;2023-04-03T09:23:44;8.50;94.10
51739;DHT22;37815;52.692;6.226;2023-04-03T09:28:45;8.60;94.30
51739;DHT22;37815;52.692;6.226;2023-04-03T09:33:50;8.70;94.30
51739;DHT22;37815;52.692;6.226;2023-04-03T09:39:04;8.80;94.30
51739;DHT22;37815;52.692;6.226;2023-04-03T09:44:20;8.90;94.30
51739;DHT22;37815;52.692;6.226;2023-04-03T09:49:21;8.90;94.30
51739;DHT22;37815;52.692;6.226;2023-04-03T09:54:46;9.00;94.40
51739;DHT22;37815;52.692;6.226;2023-04-03T09:59:59;9.00;94.30
51739;DHT22;37815;52.692;6.226;2023-04-03T10:05:01;9.10;94.30
51739;DHT22;37815;52.692;6.226;2023-04-03T10:15:17;9.20;94.30
51739;DHT22;37815;52.692;6.226;2023-04-03T10:20:33;9.20;94.30
51739;DHT22;37815;52.692;6.226;2023-04-03T10:31:23;9.40;94.40
51739;DHT22;37815;52.692;6.226;2023-04-03T10:36:42;9.40;94.20
51739;DHT22;37815;52.692;6.226;2023-04-03T10:53:37;9.60;94.10
51739;DHT22;37815;52.692;6.226;2023-04-03T10:58:44;9.70;94.00
51739;DHT22;37815;52.692;6.226;2023-04-03T11:03:57;9.70;94.00
51739;DHT22;37815;52.692;6.226;2023-04-03T11:09:22;9.80;94.00
51739;DHT22;37815;52.692;6.226;2023-04-03T11:14:29;9.80;93.90
51739;DHT22;37815;52.692;6.226;2023-04-03T11:30:07;10.00;93.80
51739;DHT22;37815;52.692;6.226;2023-04-03T11:35:11;10.00;93.60
51739;DHT22;37815;52.692;6.226;2023-04-03T12:16:31;9.00;77.60
51739;DHT22;37815;52.692;6.226;2023-04-03T12:31:56;9.00;73.10
51739;DHT22;37815;52.692;6.226;2023-04-03T12:48:16;9.30;70.40
51739;DHT22;37815;52.692;6.226;2023-04-03T12:53:25;9.30;71.70
51739;DHT22;37815;52.692;6.226;2023-04-03T12:58:28;9.50;71.00
51739;DHT22;37815;52.692;6.226;2023-04-03T13:03:29;9.60;71.50
51739;DHT22;37815;52.692;6.226;2023-04-03T13:08:31;9.80;71.70
51739;DHT22;37815;52.692;6.226;2023-04-03T13:13:32;9.90;71.20
51739;DHT22;37815;52.692;6.226;2023-04-03T13:18:36;9.90;71.90
51739;DHT22;37815;52.692;6.226;2023-04-03T13:23:41;9.90;70.40
51739;DHT22;37815;52.692;6.226;2023-04-03T13:28:44;9.90;69.40
51739;DHT22;37815;52.692;6.226;2023-04-03T13:33:57;10.00;69.00
51739;DHT22;37815;52.692;6.226;2023-04-03T13:39:07;10.10;69.00
51739;DHT22;37815;52.692;6.226;2023-04-03T13:54:37;10.60;68.10
51739;DHT22;37815;52.692;6.226;2023-04-03T13:59:38;10.90;68.50
51739;DHT22;37815;52.692;6.226;2023-04-03T14:09:45;10.90;67.70
51739;DHT22;37815;52.692;6.226;2023-04-03T14:14:46;10.90;68.00
51739;DHT22;37815;52.692;6.226;2023-04-03T14:19:48;10.90;67.20
51739;DHT22;37815;52.692;6.226;2023-04-03T14:24:51;11.00;66.80
51739;DHT22;37815;52.692;6.226;2023-04-03T14:29:54;11.20;67.20
51739;DHT22;37815;52.692;6.226;2023-04-03T14:34:55;11.30;66.60
51739;DHT22;37815;52.692;6.226;2023-04-03T14:39:59;11.50;67.20
51739;DHT22;37815;52.692;6.226;2023-04-03T14:45:04;11.80;66.40
51739;DHT22;37815;52.692;6.226;2023-04-03T14:50:07;11.90;66.50
51739;DHT22;37815;52.692;6.226;2023-04-03T14:55:08;11.90;66.30
51739;DHT22;37815;52.692;6.226;2023-04-03T15:00:17;11.90;66.50
51739;DHT22;37815;52.692;6.226;2023-04-03T15:05:18;11.80;66.40
51739;DHT22;37815;52.692;6.226;2023-04-03T15:10:25;11.90;63.20
51739;DHT22;37815;52.692;6.226;2023-04-03T15:15:29;12.00;66.00
51739;DHT22;37815;52.692;6.226;2023-04-03T15:20:30;11.90;65.90
51739;DHT22;37815;52.692;6.226;2023-04-03T15:25:32;11.60;65.10
51739;DHT22;37815;52.692;6.226;2023-04-03T15:30:33;11.30;65.30
51739;DHT22;37815;52.692;6.226;2023-04-03T15:35:36;11.10;65.80
51739;DHT22;37815;52.692;6.226;2023-04-03T15:40:37;11.30;65.80
51739;DHT22;37815;52.692;6.226;2023-04-03T15:45:38;11.40;64.50
51739;DHT22;37815;52.692;6.226;2023-04-03T15:50:41;11.20;64.00
51739;DHT22;37815;52.692;6.226;2023-04-03T15:55:41;11.00;64.50
51739;DHT22;37815;52.692;6.226;2023-04-03T16:00:42;10.80;63.70
51739;DHT22;37815;52.692;6.226;2023-04-03T16:05:44;10.50;64.30
51739;DHT22;37815;52.692;6.226;2023-04-03T16:10:45;10.40;65.20
51739;DHT22;37815;52.692;6.226;2023-04-03T16:15:46;10.20;64.80
51739;DHT22;37815;52.692;6.226;2023-04-03T16:20:48;10.20;65.10
51739;DHT22;37815;52.692;6.226;2023-04-03T16:25:49;10.20;65.10
51739;DHT22;37815;52.692;6.226;2023-04-03T16:30:51;10.00;64.20
51739;DHT22;37815;52.692;6.226;2023-04-03T16:35:51;10.00;64.10
51739;DHT22;37815;52.692;6.226;2023-04-03T16:40:52;10.00;64.60
51739;DHT22;37815;52.692;6.226;2023-04-03T16:45:57;9.90;64.30
51739;DHT22;37815;52.692;6.226;2023-04-03T16:50:58;9.90;64.50
51739;DHT22;37815;52.692;6.226;2023-04-03T16:55:58;10.00;65.40
51739;DHT22;37815;52.692;6.226;2023-04-03T17:01:09;10.40;66.30
51739;DHT22;37815;52.692;6.226;2023-04-03T17:06:12;10.80;66.40
51739;DHT22;37815;52.692;6.226;2023-04-03T17:11:17;11.00;67.20
51739;DHT22;37815;52.692;6.226;2023-04-03T17:16:18;11.10;67.80
51739;DHT22;37815;52.692;6.226;2023-04-03T17:21:19;11.30;68.40
51739;DHT22;37815;52.692;6.226;2023-04-03T17:26:20;11.40;69.00
51739;DHT22;37815;52.692;6.226;2023-04-03T17:31:21;11.50;69.50
51739;DHT22;37815;52.692;6.226;2023-04-03T17:36:22;11.50;69.90
51739;DHT22;37815;52.692;6.226;2023-04-03T17:41:23;11.50;70.40
51739;DHT22;37815;52.692;6.226;2023-04-03T17:46:25;11.50;70.90
51739;DHT22;37815;52.692;6.226;2023-04-03T17:51:26;11.60;71.40
51739;DHT22;37815;52.692;6.226;2023-04-03T17:56:27;11.60;71.70
51739;DHT22;37815;52.692;6.226;2023-04-03T18:01:30;11.60;72.20
51739;DHT22;37815;52.692;6.226;2023-04-03T18:06:40;11.60;72.50
51739;DHT22;37815;52.692;6.226;2023-04-03T18:11:43;11.60;72.80
51739;DHT22;37815;52.692;6.226;2023-04-03T18:16:44;11.60;73.30
51739;DHT22;37815;52.692;6.226;2023-04-03T18:21:45;11.50;73.70
51739;DHT22;37815;52.692;6.226;2023-04-03T18:26:56;11.50;74.00
51739;DHT22;37815;52.692;6.226;2023-04-03T18:31:59;11.50;74.30
51739;DHT22;37815;52.692;6.226;2023-04-03T18:37:00;11.60;74.70
51739;DHT22;37815;52.692;6.226;2023-04-03T18:42:08;11.50;75.00
51739;DHT22;37815;52.692;6.226;2023-04-03T18:47:10;11.40;75.30
51739;DHT22;37815;52.692;6.226;2023-04-03T18:52:11;11.40;75.50
51739;DHT22;37815;52.692;6.226;2023-04-03T18:57:12;11.40;75.60
51739;DHT22;37815;52.692;6.226;2023-04-03T19:02:13;11.40;76.00
51739;DHT22;37815;52.692;6.226;2023-04-03T19:07:14;11.30;76.10
51739;DHT22;37815;52.692;6.226;2023-04-03T19:12:14;11.30;76.30
51739;DHT22;37815;52.692;6.226;2023-04-03T19:17:15;11.30;76.50
51739;DHT22;37815;52.692;6.226;2023-04-03T19:22:16;11.30;76.80
51739;DHT22;37815;52.692;6.226;2023-04-03T19:27:16;11.20;76.90
51739;DHT22;37815;52.692;6.226;2023-04-03T19:32:17;11.20;77.10
51739;DHT22;37815;52.692;6.226;2023-04-03T19:37:18;11.10;77.20
51739;DHT22;37815;52.692;6.226;2023-04-03T19:42:19;11.10;77.50
51739;DHT22;37815;52.692;6.226;2023-04-03T19:47:20;11.10;77.60
51739;DHT22;37815;52.692;6.226;2023-04-03T19:52:21;11.10;77.80
51739;DHT22;37815;52.692;6.226;2023-04-03T19:57:22;11.10;78.00
51739;DHT22;37815;52.692;6.226;2023-04-03T20:02:22;11.00;78.10
51739;DHT22;37815;52.692;6.226;2023-04-03T20:07:23;11.00;78.30
51739;DHT22;37815;52.692;6.226;2023-04-03T20:12:24;11.00;78.50
51739;DHT22;37815;52.692;6.226;2023-04-03T20:17:25;10.90;78.60
51739;DHT22;37815;52.692;6.226;2023-04-03T20:22:27;10.90;78.80
51739;DHT22;37815;52.692;6.226;2023-04-03T20:27:28;10.90;78.90
51739;DHT22;37815;52.692;6.226;2023-04-03T20:32:28;10.80;78.90
51739;DHT22;37815;52.692;6.226;2023-04-03T20:37:29;10.80;79.10
51739;DHT22;37815;52.692;6.226;2023-04-03T20:42:30;10.80;79.20
51739;DHT22;37815;52.692;6.226;2023-04-03T20:47:30;10.70;79.30
51739;DHT22;37815;52.692;6.226;2023-04-03T20:52:31;10.70;79.50
51739;DHT22;37815;52.692;6.226;2023-04-03T20:57:32;10.70;79.60
51739;DHT22;37815;52.692;6.226;2023-04-03T21:02:33;10.60;79.70
51739;DHT22;37815;52.692;6.226;2023-04-03T21:24:08;10.50;80.20
51739;DHT22;37815;52.692;6.226;2023-04-03T21:29:10;10.50;80.30
51739;DHT22;37815;52.692;6.226;2023-04-03T21:34:11;10.40;80.40
51739;DHT22;37815;52.692;6.226;2023-04-03T21:39:13;10.40;80.60
51739;DHT22;37815;52.692;6.226;2023-04-03T21:44:13;10.40;80.70
51739;DHT22;37815;52.692;6.226;2023-04-03T21:49:14;10.40;80.90
51739;DHT22;37815;52.692;6.226;2023-04-03T21:54:15;10.30;81.00
51739;DHT22;37815;52.692;6.226;2023-04-03T21:59:16;10.30;81.20
51739;DHT22;37815;52.692;6.226;2023-04-03T22:04:17;10.30;81.30
51739;DHT22;37815;52.692;6.226;2023-04-03T22:09:17;10.20;81.40
51739;DHT22;37815;52.692;6.226;2023-04-03T22:14:18;10.20;81.60
51739;DHT22;37815;52.692;6.226;2023-04-03T22:19:19;10.20;81.70
51739;DHT22;37815;52.692;6.226;2023-04-03T22:24:20;10.20;81.80
51739;DHT22;37815;52.692;6.226;2023-04-03T22:29:21;10.10;81.90
51739;DHT22;37815;52.692;6.226;2023-04-03T22:34:23;10.10;82.00
51739;DHT22;37815;52.692;6.226;2023-04-03T22:39:23;10.10;82.10
51739;DHT22;37815;52.692;6.226;2023-04-03T22:44:24;10.00;82.20
51739;DHT22;37815;52.692;6.226;2023-04-03T22:49:25;10.00;82.30
51739;DHT22;37815;52.692;6.226;2023-04-03T22:54:25;10.00;82.40
51739;DHT22;37815;52.692;6.226;2023-04-03T22:59:26;10.00;82.50
51739;DHT22;37815;52.692;6.226;2023-04-03T23:04:26;9.90;82.50
51739;DHT22;37815;52.692;6.226;2023-04-03T23:09:27;9.90;82.60
51739;DHT22;37815;52.692;6.226;2023-04-03T23:14:27;9.90;82.70
51739;DHT22;37815;52.692;6.226;2023-04-03T23:19:28;9.90;82.80
51739;DHT22;37815;52.692;6.226;2023-04-03T23:24:28;9.80;82.80
51739;DHT22;37815;52.692;6.226;2023-04-03T23:29:29;9.80;82.90
51739;DHT22;37815;52.692;6.226;2023-04-03T23:34:30;9.80;82.90
51739;DHT22;37815;52.692;6.226;2023-04-03T23:39:30;9.80;83.00
51739;DHT22;37815;52.692;6.226;2023-04-03T23:44:32;9.70;83.00
51739;DHT22;37815;52.692;6.226;2023-04-03T23:49:32;9.70;83.10
51739;DHT22;37815;52.692;6.226;2023-04-03T23:54:39;9.70;83.20
51739;DHT22;37815;52.692;6.226;2023-04-03T23:59:40;9.70;83.20
